22 maja 2022

Czas Kod Pogoda Temp. Widoczność Chmury Wiatr METAR/SPECI
08:00
V
19 °C 8 km - 160°   160° 5 kt METAR LFBY 220600Z AUTO 16005KT 130V190 8000 // ////// 19/17 Q1012
07:30
M
18 °C 7 km - 200°   200° 3 kt METAR LFBY 220530Z AUTO 20003KT 7000 // ////// 18/17 Q1013
07:00
M
18 °C 7 km - 220°   220° 7 kt METAR LFBY 220500Z AUTO 22007KT 7000 // ////// 18/17 Q1013
06:30
M
18 °C 7 km - 260°   260° 5 kt METAR LFBY 220430Z AUTO 26005KT 220V310 7000 // ////// 18/17 Q1012
06:00
V
18 °C 8 km - 250°   250° 5 kt METAR LFBY 220400Z AUTO 25005KT 210V290 8000 // ////// 18/17 Q1013
05:30
V
18 °C 8 km - 270°   270° 5 kt METAR LFBY 220330Z AUTO 27005KT 240V320 8000 // ////// 18/17 Q1013
05:00
I
18 °C 7 km 700 ft 260°   260° 8 kt METAR LFBY 220300Z AUTO 26008KT 230V300 7000 // OVC007 18/17 Q1014
04:30
I
18 °C 7 km 600 ft 250°   250° 8 kt METAR LFBY 220230Z AUTO 25008KT 230V290 7000 // OVC006 18/17 Q1013
04:00
I
18 °C 7 km 700 ft 260°   260° 6 kt METAR LFBY 220200Z AUTO 26006KT 230V310 7000 // OVC007 18/17 Q1013
03:30
M
19 °C 7 km - 250°   250° 8 kt METAR LFBY 220130Z AUTO 25008KT 7000 // ////// 19/17 Q1014
03:00
V
19 °C 8 km - 260°   260° 8 kt METAR LFBY 220100Z AUTO 26008KT 230V300 8000 // ////// 19/17 Q1014
02:30
V
19 °C 8 km - 260°   260° 11 kt METAR LFBY 220030Z AUTO 26011KT 230V300 8000 // ////// 19/18 Q1014
02:00
V
19 °C 8 km - 250°   250° 7 kt METAR LFBY 220000Z AUTO 25007KT 8000 // ////// 19/17 Q1014
01:30
I
19 °C 8 km 600 ft 270°   270° 7 kt METAR LFBY 212330Z AUTO 27007KT 220V300 8000 // OVC006 19/18 Q1014
01:00
V
19 °C 8 km - 260°   260° 6 kt METAR LFBY 212300Z AUTO 26006KT 230V300 8000 // ////// 19/18 Q1014
00:30
V
19 °C 9 km - 260°   260° 5 kt METAR LFBY 212230Z AUTO 26005KT 230V290 9000 // ////// 19/18 Q1014
00:00
V
19 °C 10 km+ - 260°   260° 5 kt METAR LFBY 212200Z AUTO 26005KT 230V290 9999 // ////// 19/18 Q1014

21 maja 2022

Czas Kod Pogoda Temp. Widoczność Chmury Wiatr METAR/SPECI
23:30
V
20 °C 10 km+ - 260°   260° 4 kt METAR LFBY 212130Z AUTO 26004KT 230V290 9999 // ////// 20/18 Q1014
23:00
V
21 °C 10 km+ - 260°   260° 5 kt METAR LFBY 212100Z AUTO 26005KT 230V300 9999 // ////// 21/18 Q1014
22:30
V
22 °C 10 km+ - 270°   270° 9 kt METAR LFBY 212030Z AUTO 27009KT 240V330 9999 // ////// 22/19 Q1014
22:00
V
24 °C 10 km+ - 210°   210° 4 kt METAR LFBY 212000Z AUTO 21004KT 9999 // ////// 24/20 Q1014
21:30
V
26 °C 10 km+ - Var   Var 2 kt METAR LFBY 211930Z AUTO VRB02KT 9999 // ////// 26/21 Q1014
21:00
V
28 °C 10 km+ - 060°   060° 3 kt METAR LFBY 211900Z AUTO 06003KT 9999 // ////// 28/19 Q1014
20:30
V
29 °C 10 km+ - 050°   050° 4 kt METAR LFBY 211830Z AUTO 05004KT 9999 // ////// 29/20 Q1014
20:00
V
29 °C 10 km+ - 090°   090° 3 kt METAR LFBY 211800Z AUTO 09003KT 9999 // ////// 29/20 Q1014
19:30
V
29 °C 10 km+ - 090°   090° 4 kt METAR LFBY 211730Z AUTO 09004KT 9999 // ////// 29/20 Q1014
19:00
V
30 °C 10 km+ - 110°   110° 3 kt METAR LFBY 211700Z AUTO 11003KT 080V140 9999 // ////// 30/20 Q1014
18:30
V
30 °C 10 km+ - 100°   100° 4 kt METAR LFBY 211630Z AUTO 10004KT 9999 // ////// 30/20 Q1014
18:00
V
30 °C 10 km+ - 120°   120° 4 kt METAR LFBY 211600Z AUTO 12004KT 070V150 9999 // ////// 30/20 Q1014
17:30
L
30 °C 0 m - 090°   090° 7 kt METAR LFBY 211530Z AUTO 09007KT //// // ////// 30/21 Q1015
17:00
V
29 °C 10 km+ - 070°   070° 7 kt METAR LFBY 211500Z AUTO 07007KT 050V110 9999 // ////// 29/20 Q1015
16:30
V
30 °C 10 km+ - 060°   060° 4 kt METAR LFBY 211430Z AUTO 06004KT 360V140 9999 // ////// 30/19 Q1016
16:00
V
29 °C 10 km+ - 070°   070° 5 kt METAR LFBY 211400Z AUTO 07005KT 030V120 9999 // ////// 29/20 Q1016
15:30
V
29 °C 10 km+ - 110°   110° 5 kt METAR LFBY 211330Z AUTO 11005KT 040V150 9999 // ////// 29/19 Q1016
15:00
V
28 °C 10 km+ - 080°   080° 8 kt METAR LFBY 211300Z AUTO 08008KT 050V110 9999 // ////// 28/20 Q1016
14:30
V
27 °C 10 km+ - 040°   040° 5 kt METAR LFBY 211230Z AUTO 04005KT 340V100 9999 // ////// 27/19 Q1017
14:00
V
27 °C 10 km+ - 060°   060° 7 kt METAR LFBY 211200Z AUTO 06007KT 350V110 9999 // ////// 27/20 Q1017
13:30
V
26 °C 10 km+ - 070°   070° 8 kt METAR LFBY 211130Z AUTO 07008KT 030V110 9999 // ////// 26/18 Q1017
13:00
V
25 °C 10 km+ - 060°   060° 8 kt METAR LFBY 211100Z AUTO 06008KT 030V100 9999 // ////// 25/18 Q1017
12:30
L
24 °C 0 m - 070°   070° 7 kt METAR LFBY 211030Z AUTO 07007KT 030V110 //// // ////// 24/18 Q1018
12:00
V
23 °C 10 km+ - 060°   060° 5 kt METAR LFBY 211000Z AUTO 06005KT 030V090 9999 // ////// 23/17 Q1018
11:30
V
22 °C 10 km+ - 080°   080° 6 kt METAR LFBY 210930Z AUTO 08006KT 360V120 9999 // ////// 22/17 Q1018
11:00
V
22 °C 10 km+ - 100°   100° 7 kt METAR LFBY 210900Z AUTO 10007KT 9999 // ////// 22/17 Q1018
10:30
V
21 °C 10 km+ - 100°   100° 7 kt METAR LFBY 210830Z AUTO 10007KT 070V130 9999 // ////// 21/17 Q1018
10:00
V
20 °C 10 km+ - 100°   100° 7 kt METAR LFBY 210800Z AUTO 10007KT 070V140 9999 // ////// 20/16 Q1018
09:30
V
19 °C 10 km+ - 090°   090° 5 kt METAR LFBY 210730Z AUTO 09005KT 060V120 9999 // ////// 19/16 Q1019
09:00
V
19 °C 10 km+ - 090°   090° 6 kt METAR LFBY 210700Z AUTO 09006KT 9999 // ////// 19/16 Q1019
08:30
V
18 °C 8 km - 110°   110° 5 kt METAR LFBY 210630Z AUTO 11005KT 8000 // ////// 18/16 Q1019
08:00
M
17 °C 7 km - 100°   100° 3 kt METAR LFBY 210600Z AUTO 10003KT 7000 // ////// 17/16 Q1020
07:30
L
17 °C 0 m - 080°   080° 2 kt METAR LFBY 210530Z AUTO 08002KT //// // ////// 17/16 Q1020
07:00
M
16 °C 7 km - 060°   060° 3 kt METAR LFBY 210500Z AUTO 06003KT 7000 // ////// 16/15 Q1020
06:30
V
17 °C 8 km - Var   000° 0 kt METAR LFBY 210430Z AUTO 00000KT 8000 // ////// 17/15 Q1020
06:00
V
17 °C 8 km - 070°   070° 4 kt METAR LFBY 210400Z AUTO 07004KT 8000 // ////// 17/15 Q1020
05:30
M
17 °C 7 km - 070°   070° 4 kt METAR LFBY 210330Z AUTO 07004KT 7000 // ////// 17/16 Q1021
05:00
M
17 °C 6 km 3.000 ft 090°   090° 3 kt METAR LFBY 210300Z AUTO 09003KT 6000 // OVC030 17/16 Q1021
04:30
M
17 °C 7 km 3.200 ft 100°   100° 3 kt METAR LFBY 210230Z AUTO 10003KT 7000 // OVC032 17/16 Q1021
04:00
M
17 °C 7 km - 090°   090° 3 kt METAR LFBY 210200Z AUTO 09003KT 7000 // ////// 17/16 Q1022
03:30
M
17 °C 8 km 2.700 ft 110°   110° 3 kt METAR LFBY 210130Z AUTO 11003KT 8000 // OVC027 17/15 Q1022
03:00
M
18 °C 9 km 2.800 ft Var   Var 2 kt METAR LFBY 210100Z AUTO VRB02KT 9000 // OVC028 18/15 Q1023
02:30
V
17 °C 9 km - Var   Var 2 kt METAR LFBY 210030Z AUTO VRB02KT 9000 // ////// 17/16 Q1023
02:00
V
17 °C 8 km - Var   000° 0 kt METAR LFBY 210000Z AUTO 00000KT 8000 // ////// 17/16 Q1023
01:30
V
17 °C 8 km 3.300 ft Var   Var 1 kt METAR LFBY 202330Z AUTO VRB01KT 8000 // OVC033 17/16 Q1023
01:00
V
17 °C 9 km 3.300 ft Var   Var 1 kt METAR LFBY 202300Z AUTO VRB01KT 9000 // OVC033 17/15 Q1024
00:30
L
17 °C 0 m - Var   Var 2 kt METAR LFBY 202230Z AUTO VRB02KT //// // ////// 17/15 Q1024
00:00
V
17 °C 9 km 3.400 ft Var   Var 3 kt METAR LFBY 202200Z AUTO VRB03KT 9000 // OVC034 17/16 Q1024

20 maja 2022

Czas Kod Pogoda Temp. Widoczność Chmury Wiatr METAR/SPECI
23:30
V
17 °C 10 km+ - Var   Var 2 kt METAR LFBY 202130Z AUTO VRB02KT 9999 // ////// 17/15 Q1024
23:00
V
18 °C 10 km+ - 310°   310° 3 kt METAR LFBY 202100Z AUTO 31003KT 260V350 9999 // ////// 18/15 Q1024
22:30
V
18 °C 10 km+ - 310°   310° 3 kt METAR LFBY 202030Z AUTO 31003KT 260V340 9999 // ////// 18/15 Q1024
22:00
V
19 °C 10 km+ - 290°   290° 5 kt METAR LFBY 202000Z AUTO 29005KT 260V340 9999 // ////// 19/16 Q1023
21:30
V
20 °C 10 km+ 3.000 ft 280°   280° 3 kt METAR LFBY 201930Z AUTO 28003KT 230V310 9999 // OVC030 20/15 Q1023
21:00
V
20 °C 10 km+ 3.300 ft 280°   280° 3 kt METAR LFBY 201900Z AUTO 28003KT 230V310 9999 // OVC033 20/15 Q1023
20:30
V
20 °C 10 km+ 3.300 ft Var   Var 3 kt METAR LFBY 201830Z AUTO VRB03KT 9999 // OVC033 20/16 Q1024
20:00
V
21 °C 10 km+ 3.400 ft 300°   300° 4 kt METAR LFBY 201800Z AUTO 30004KT 270V350 9999 // OVC034 21/15 Q1024
19:30
V
21 °C 10 km+ 3.300 ft 300°   300° 4 kt METAR LFBY 201730Z AUTO 30004KT 250V350 9999 // OVC033 21/15 Q1024
19:00
V
21 °C 10 km+ 3.000 ft 290°   290° 5 kt METAR LFBY 201700Z AUTO 29005KT 260V320 9999 // OVC030 21/15 Q1024
18:30
V
21 °C 10 km+ - 280°   280° 5 kt METAR LFBY 201630Z AUTO 28005KT 230V340 9999 // ////// 21/15 Q1024
18:00
M
21 °C 10 km+ 2.700 ft 270°   270° 4 kt METAR LFBY 201600Z AUTO 27004KT 230V340 9999 // OVC027 21/15 Q1024
17:30
M
21 °C 10 km+ 2.500 ft 280°   280° 4 kt METAR LFBY 201530Z AUTO 28004KT 240V320 9999 // OVC025 21/16 Q1024
17:00
M
21 °C 10 km+ 2.500 ft 300°   300° 5 kt METAR LFBY 201500Z AUTO 30005KT 260V350 9999 // OVC025 21/16 Q1024
16:30
V
21 °C 10 km+ - 300°   300° 6 kt METAR LFBY 201430Z AUTO 30006KT 250V350 9999 // ////// 21/16 Q1024
16:00
V
22 °C 10 km+ 3.100 ft 260°   260° 7 kt METAR LFBY 201400Z AUTO 26007KT 9999 // SCT026 OVC031 22/16 Q1024
15:30
V
22 °C 10 km+ - 240°   240° 7 kt METAR LFBY 201330Z AUTO 24007KT 220V280 9999 // ////// 22/16 Q1024
15:00
M
22 °C 10 km+ 2.500 ft 250°   250° 7 kt METAR LFBY 201300Z 25007KT 220V290 9999 SCT021 BKN025 22/16 Q1023
14:00
M
21 °C 10 km+ 2.100 ft 290°   290° 6 kt METAR LFBY 201200Z 29006KT 250V340 9999 SCT018 BKN021 21/16 Q1023
13:00
M
20 °C 10 km+ 1.800 ft 290°   290° 10 kt METAR LFBY 201100Z 29010KT 260V330 9999 BKN018 BKN021 20/16 Q1023
12:00
M
20 °C 10 km+ 1.500 ft 290°   290° 9 kt METAR LFBY 201000Z 29009KT 250V320 9999 SCT012 BKN015 20/16 Q1022
11:00
M
21 °C 10 km+ 1.300 ft 270°   270° 7 kt METAR LFBY 200900Z 27007KT 240V310 9999 BKN013 BKN200 21/17 Q1021
10:00
M
21 °C 9 km 1.300 ft 290°   290° 8 kt METAR LFBY 200800Z 29008KT 250V310 9000 SCT007 BKN013 BKN210 21/18 Q1020
09:00
I
19 °C 7 km 700 ft 280°   280° 5 kt METAR LFBY 200700Z 28005KT 240V320 7000 BKN007 BKN210 19/17 Q1019
08:00
I
18 °C 4 km 500 ft 270°   270° 3 kt METAR LFBY 200600Z 27003KT 220V320 4000 BR BKN005 18/17 Q1018
07:00
L
18 °C 4 km 300 ft 260°   260° 4 kt METAR LFBY 200500Z 26004KT 220V320 4000 BR BKN003 OVC005 18/17 Q1018
Starsze dane

Pobierz naszą aplikację

Łatwy dostęp do całej pogody lotniczej na telefonie komórkowym i tablecie.
Z wieloma funkcjami niedostępnymi na stronie internetowej, takimi jak wsparcie offline i osobista lista lotnisk.

My i osoby trzecie śledzimy twoje zachowanie w internecie na naszej stronie za pomocą plików cookie. Jeśli kontynuujesz, zakładamy, że zgadzasz się z naszą polityką plików cookie. Dowiedz się więcej